Time;durP1;ratioP1;P1;durP2;ratioP2;P2;SDS_P1;SDS_P2;PMS_P1;PMS_P2;Temp;Humidity;BMP_temperature;BMP_pressure;BME280_temperature;BME280_humidity;BME280_pressure;Samples;Min_cycle;Max_cycle;Signal;HPM_P1;HPM_P2
2022/07/19 00:01:28;;;;;;;4.07;2.47;;;18.50;57.30;;;;;;5035543;28;20030;-68
2022/07/19 00:03:56;;;;;;;4.68;2.22;;;18.50;57.50;;;;;;5047468;28;20407;-67
2022/07/19 00:06:23;;;;;;;3.35;2.33;;;18.40;57.40;;;;;;5037585;28;20029;-67
2022/07/19 00:08:49;;;;;;;2.85;2.00;;;18.20;57.90;;;;;;5039773;28;20026;-66
2022/07/19 00:11:14;;;;;;;6.25;2.30;;;18.20;58.10;;;;;;5044949;28;20479;-68
2022/07/19 00:13:40;;;;;;;6.50;2.10;;;18.20;57.90;;;;;;5034503;28;20471;-68
2022/07/19 00:16:05;;;;;;;5.15;2.47;;;18.20;58.40;;;;;;5046391;28;20036;-67
2022/07/19 00:18:31;;;;;;;4.20;2.08;;;18.00;58.40;;;;;;5037741;28;20091;-68
2022/07/19 00:20:57;;;;;;;3.38;1.83;;;17.90;58.60;;;;;;5039325;28;20021;-66
2022/07/19 00:23:22;;;;;;;3.47;1.92;;;17.90;58.80;;;;;;5048770;28;20092;-66
2022/07/19 00:25:48;;;;;;;4.95;2.30;;;18.00;58.60;;;;;;5037949;28;20123;-67
2022/07/19 00:28:13;;;;;;;6.90;2.00;;;18.00;58.60;;;;;;5048547;28;20051;-66
2022/07/19 00:30:39;;;;;;;3.75;2.22;;;18.00;58.80;;;;;;5043328;28;20036;-66
2022/07/19 00:33:08;;;;;;;6.72;2.45;;;17.90;59.20;;;;;;5041908;28;20072;-67
2022/07/19 00:35:35;;;;;;;4.72;2.00;;;17.90;59.20;;;;;;5050911;28;20013;-68
2022/07/19 00:38:06;;;;;;;2.70;1.63;;;17.90;59.20;;;;;;5037436;28;20049;-67
2022/07/19 00:40:31;;;;;;;4.03;1.98;;;18.00;59.20;;;;;;5043806;28;20025;-66
2022/07/19 00:42:57;;;;;;;4.78;2.20;;;17.90;59.30;;;;;;5044289;28;20365;-67
2022/07/19 00:45:22;;;;;;;3.22;2.15;;;17.90;59.70;;;;;;5050699;28;20073;-67
2022/07/19 00:47:48;;;;;;;5.05;2.25;;;17.90;59.60;;;;;;5036924;28;20029;-67
2022/07/19 00:50:14;;;;;;;5.93;2.38;;;17.80;59.70;;;;;;5048639;28;20034;-67
2022/07/19 00:52:40;;;;;;;5.18;2.30;;;17.70;59.90;;;;;;5025177;28;20017;-67
2022/07/19 00:55:09;;;;;;;5.13;2.30;;;17.70;60.10;;;;;;5041237;28;20130;-67
2022/07/19 00:57:38;;;;;;;2.97;2.17;;;17.70;59.90;;;;;;5049721;28;20025;-66
2022/07/19 01:00:05;;;;;;;3.97;2.20;;;17.70;60.00;;;;;;5037669;28;20028;-66
2022/07/19 01:02:32;;;;;;;4.78;2.08;;;17.70;59.90;;;;;;5045541;28;20029;-67
2022/07/19 01:04:59;;;;;;;3.80;2.28;;;17.70;59.60;;;;;;5045455;28;20021;-67
2022/07/19 01:07:24;;;;;;;3.42;2.20;;;17.70;59.90;;;;;;5037739;28;20040;-67
2022/07/19 01:09:51;;;;;;;4.88;2.13;;;17.70;60.10;;;;;;5050140;28;20025;-65
2022/07/19 01:12:18;;;;;;;7.45;2.35;;;17.70;60.10;;;;;;5039475;28;20483;-67
2022/07/19 01:14:43;;;;;;;6.32;2.22;;;17.70;59.80;;;;;;5043865;28;20026;-67
2022/07/19 01:17:10;;;;;;;5.13;2.17;;;17.70;60.00;;;;;;5045924;28;20018;-69
2022/07/19 01:19:35;;;;;;;3.85;2.10;;;17.70;59.60;;;;;;5037105;28;20026;-68
2022/07/19 01:22:01;;;;;;;5.35;2.33;;;17.70;59.90;;;;;;5049639;28;20466;-69
2022/07/19 01:24:27;;;;;;;5.03;2.03;;;17.70;60.10;;;;;;5040745;28;20017;-68
2022/07/19 01:26:53;;;;;;;5.20;2.22;;;17.60;59.90;;;;;;5024549;28;20495;-68
2022/07/19 01:29:18;;;;;;;3.72;1.92;;;17.60;60.10;;;;;;5047302;28;20021;-68
2022/07/19 01:31:44;;;;;;;3.55;1.88;;;17.60;60.00;;;;;;5036723;28;20293;-65
2022/07/19 01:34:10;;;;;;;5.60;2.63;;;17.60;60.30;;;;;;5047564;28;20439;-66
2022/07/19 01:36:35;;;;;;;5.43;3.17;;;17.50;60.40;;;;;;5041946;28;20029;-67
2022/07/19 01:39:01;;;;;;;5.28;2.55;;;17.50;60.60;;;;;;5027122;28;20028;-67
2022/07/19 01:41:27;;;;;;;4.45;2.20;;;17.50;60.90;;;;;;5037722;28;20570;-67
2022/07/19 01:43:52;;;;;;;5.03;2.55;;;17.50;61.20;;;;;;5049873;28;20036;-67
2022/07/19 01:46:18;;;;;;;7.05;2.67;;;17.40;61.20;;;;;;5022034;28;20029;-65
2022/07/19 01:48:43;;;;;;;5.68;1.83;;;17.40;60.90;;;;;;5042574;28;20022;-66
2022/07/19 01:51:09;;;;;;;5.63;2.60;;;17.30;60.30;;;;;;5046232;28;20368;-67
2022/07/19 01:53:35;;;;;;;4.63;2.60;;;17.40;60.30;;;;;;5036832;28;20033;-65
2022/07/19 01:56:04;;;;;;;6.57;2.28;;;17.40;60.00;;;;;;5049306;28;20537;-67
2022/07/19 01:58:29;;;;;;;5.35;3.00;;;17.40;60.30;;;;;;5039391;28;20599;-67
2022/07/19 02:00:55;;;;;;;4.00;2.08;;;17.50;59.70;;;;;;5041477;28;20074;-67
2022/07/19 02:03:20;;;;;;;5.35;2.13;;;17.40;60.10;;;;;;5047261;28;20513;-67
2022/07/19 02:05:46;;;;;;;3.58;2.10;;;17.50;61.20;;;;;;5018164;28;20026;-67
2022/07/19 02:08:13;;;;;;;4.28;2.10;;;17.40;60.80;;;;;;5028632;28;20104;-67
2022/07/19 02:10:38;;;;;;;6.75;2.10;;;17.40;60.10;;;;;;5041188;28;20025;-66
2022/07/19 02:13:04;;;;;;;6.82;2.10;;;17.40;59.60;;;;;;5040022;28;20028;-67
2022/07/19 02:15:29;;;;;;;2.80;2.10;;;17.50;59.60;;;;;;5048656;28;20372;-67
2022/07/19 02:17:55;;;;;;;2.80;2.00;;;17.40;59.70;;;;;;5035138;28;20024;-67
2022/07/19 02:20:21;;;;;;;3.85;2.05;;;17.50;60.90;;;;;;5045841;28;20022;-67
2022/07/19 02:22:47;;;;;;;6.55;1.98;;;17.30;59.60;;;;;;5042301;28;20107;-67
2022/07/19 02:25:13;;;;;;;3.30;2.20;;;17.40;60.80;;;;;;5038556;28;20049;-67
2022/07/19 02:27:40;;;;;;;4.75;2.38;;;17.30;61.50;;;;;;5047960;28;20045;-67
2022/07/19 02:30:06;;;;;;;4.85;2.10;;;17.30;59.80;;;;;;5036364;28;20025;-67
2022/07/19 02:32:32;;;;;;;10.45;2.38;;;17.30;60.50;;;;;;5043688;28;20112;-67
2022/07/19 02:34:57;;;;;;;4.18;2.00;;;17.20;61.00;;;;;;5043981;28;20458;-66
2022/07/19 02:37:23;;;;;;;5.30;2.33;;;17.20;61.40;;;;;;5036185;28;20387;-67
2022/07/19 02:39:48;;;;;;;3.95;2.13;;;17.20;61.40;;;;;;5038209;28;20071;-67
2022/07/19 02:42:14;;;;;;;3.95;2.28;;;17.20;60.00;;;;;;5046325;28;20014;-67
2022/07/19 02:44:40;;;;;;;3.85;2.47;;;17.10;61.10;;;;;;5040583;28;20030;-67
2022/07/19 02:47:05;;;;;;;4.50;2.45;;;17.20;60.90;;;;;;5038813;28;20126;-67
2022/07/19 02:49:31;;;;;;;7.10;2.25;;;17.20;59.60;;;;;;5048024;28;20103;-66
2022/07/19 02:51:56;;;;;;;5.30;2.17;;;17.20;59.90;;;;;;5035087;28;20047;-67
2022/07/19 02:54:22;;;;;;;6.05;2.08;;;17.20;60.30;;;;;;5045143;28;20077;-67
2022/07/19 02:56:47;;;;;;;3.53;2.10;;;17.10;59.90;;;;;;5041822;28;20029;-66
2022/07/19 02:59:13;;;;;;;6.82;2.05;;;17.20;59.90;;;;;;5037390;28;20104;-68
2022/07/19 03:01:39;;;;;;;4.90;2.28;;;17.10;61.20;;;;;;5048100;28;20179;-68
2022/07/19 03:04:04;;;;;;;4.50;2.50;;;17.10;60.50;;;;;;5035951;28;20025;-68
2022/07/19 03:06:30;;;;;;;5.38;2.10;;;17.00;61.50;;;;;;5043738;28;20521;-67
2022/07/19 03:08:56;;;;;;;5.15;2.33;;;17.00;61.70;;;;;;5042469;28;20032;-67
2022/07/19 03:11:22;;;;;;;15.15;6.85;;;17.00;61.80;;;;;;5036695;28;20075;-67
2022/07/19 03:13:48;;;;;;;11.18;4.63;;;17.00;62.10;;;;;;5049105;28;20024;-66
2022/07/19 03:16:13;;;;;;;4.00;2.22;;;17.00;62.00;;;;;;5039206;28;20096;-67
2022/07/19 03:18:39;;;;;;;4.95;2.50;;;16.90;61.70;;;;;;5043589;28;20033;-66
2022/07/19 03:21:05;;;;;;;6.00;2.60;;;17.00;61.60;;;;;;5045578;28;20025;-66
2022/07/19 03:23:32;;;;;;;27.85;13.88;;;17.00;61.60;;;;;;5038519;28;20040;-66
2022/07/19 03:25:58;;;;;;;8.70;2.83;;;17.00;61.90;;;;;;5051258;28;20017;-67
2022/07/19 03:28:24;;;;;;;10.52;4.25;;;17.00;61.70;;;;;;5041181;28;20032;-66
2022/07/19 03:30:49;;;;;;;3.67;2.38;;;17.10;61.90;;;;;;5042664;28;20127;-67
2022/07/19 03:33:15;;;;;;;7.47;2.72;;;17.10;61.80;;;;;;5047734;28;20037;-67
2022/07/19 03:35:45;;;;;;;12.65;5.35;;;17.10;62.00;;;;;;5034900;28;20484;-67
2022/07/19 03:38:12;;;;;;;8.23;2.65;;;17.20;61.70;;;;;;5042667;28;20446;-66
2022/07/19 03:40:38;;;;;;;8.07;2.65;;;17.30;61.70;;;;;;5024488;28;20049;-66
2022/07/19 03:43:04;;;;;;;5.78;2.60;;;17.40;61.60;;;;;;5043743;28;20048;-67
2022/07/19 03:45:30;;;;;;;9.07;3.20;;;17.50;61.30;;;;;;5035132;28;20555;-68
2022/07/19 03:47:56;;;;;;;8.30;2.30;;;17.80;60.10;;;;;;5046785;28;20026;-66
2022/07/19 03:50:21;;;;;;;6.13;2.67;;;18.50;58.40;;;;;;5037555;28;20013;-66
2022/07/19 03:52:47;;;;;;;3.65;2.15;;;19.30;55.20;;;;;;5040503;28;20446;-67
2022/07/19 03:55:12;;;;;;;5.20;2.08;;;20.00;52.80;;;;;;5044537;28;20032;-67
2022/07/19 03:57:38;;;;;;;4.72;2.17;;;20.70;50.10;;;;;;5035509;28;20033;-67
2022/07/19 04:00:05;;;;;;;5.47;2.53;;;21.70;49.10;;;;;;5032828;28;20078;-67
2022/07/19 04:02:31;;;;;;;2.55;1.95;;;22.60;47.30;;;;;;5042615;28;20386;-69
2022/07/19 04:04:57;;;;;;;5.20;2.63;;;23.40;45.00;;;;;;5043523;28;20068;-67
2022/07/19 04:07:23;;;;;;;5.38;2.03;;;24.20;43.20;;;;;;5049051;28;20568;-66
2022/07/19 04:09:48;;;;;;;5.28;2.38;;;25.00;42.40;;;;;;5038217;28;20022;-67
2022/07/19 04:12:14;;;;;;;8.45;2.47;;;25.60;40.30;;;;;;5048868;28;20018;-67
2022/07/19 04:14:39;;;;;;;7.72;2.13;;;25.60;40.10;;;;;;5043968;28;20032;-66
2022/07/19 04:17:05;;;;;;;5.82;2.28;;;25.90;38.70;;;;;;5042256;28;20057;-65
2022/07/19 04:19:31;;;;;;;7.45;2.42;;;25.80;39.00;;;;;;5051091;28;20032;-66
2022/07/19 04:21:57;;;;;;;5.88;2.50;;;26.10;38.40;;;;;;5038171;28;20029;-66
2022/07/19 04:24:23;;;;;;;8.57;2.58;;;26.00;36.90;;;;;;5047812;28;20108;-66
2022/07/19 04:26:48;;;;;;;5.72;2.10;;;26.00;36.90;;;;;;5045029;28;20087;-66
2022/07/19 04:29:16;;;;;;;3.80;2.45;;;26.00;36.50;;;;;;5039986;28;20032;-67
2022/07/19 04:31:42;;;;;;;4.35;2.28;;;26.00;36.40;;;;;;5066527;22;20043;-66
2022/07/19 04:34:07;;;;;;;4.72;2.08;;;26.10;36.20;;;;;;5035754;28;20457;-66
2022/07/19 04:36:33;;;;;;;4.90;2.47;;;26.00;36.70;;;;;;5044537;28;20032;-67
2022/07/19 04:38:58;;;;;;;5.32;2.22;;;26.40;36.00;;;;;;5030476;28;20089;-66
2022/07/19 04:41:24;;;;;;;7.82;2.47;;;26.40;36.40;;;;;;5048097;28;20061;-68
2022/07/19 04:43:49;;;;;;;4.05;1.65;;;26.90;35.40;;;;;;5035774;28;20469;-65
2022/07/19 04:46:15;;;;;;;7.00;2.30;;;27.90;34.00;;;;;;5047026;28;20475;-67
2022/07/19 04:48:41;;;;;;;7.68;2.75;;;29.00;32.20;;;;;;5041070;28;20036;-67
2022/07/19 04:51:07;;;;;;;6.78;2.00;;;29.00;31.70;;;;;;5039985;28;20090;-66
2022/07/19 04:53:32;;;;;;;6.63;2.03;;;28.50;32.00;;;;;;5048949;28;20025;-67
2022/07/19 04:55:58;;;;;;;4.82;1.60;;;28.50;32.40;;;;;;5036152;28;20024;-66
2022/07/19 04:58:24;;;;;;;6.45;1.83;;;28.40;32.50;;;;;;5044832;28;20431;-66
2022/07/19 05:00:49;;;;;;;6.65;2.17;;;28.50;32.50;;;;;;5043234;28;20029;-66
2022/07/19 05:03:15;;;;;;;8.32;2.08;;;29.00;31.90;;;;;;5038535;28;20549;-67
2022/07/19 05:05:40;;;;;;;5.50;1.88;;;29.30;31.10;;;;;;5048895;28;20021;-67
2022/07/19 05:08:06;;;;;;;9.10;2.67;;;28.90;31.70;;;;;;5036743;28;20021;-67
2022/07/19 05:10:32;;;;;;;6.03;1.67;;;29.80;30.50;;;;;;5044110;28;20026;-67
2022/07/19 05:12:58;;;;;;;6.13;2.25;;;;;;;;;;5043864;28;20018;-67
2022/07/19 05:15:24;;;;;;;9.20;2.42;;;;;;;;;;5037076;28;20022;-66
2022/07/19 05:17:50;;;;;;;7.65;2.00;;;;;;;;;;5048147;28;20017;-66
2022/07/19 05:20:16;;;;;;;9.10;2.65;;;;;;;;;;5038235;28;20390;-67
2022/07/19 05:22:43;;;;;;;6.05;2.40;;;;;;;;;;5042478;28;20075;-66
2022/07/19 05:25:09;;;;;;;10.07;2.42;;;;;;;;;;5045126;28;20029;-65
2022/07/19 05:27:36;;;;;;;7.00;2.28;;;;;;;;;;5035072;28;20289;-66
2022/07/19 05:30:02;;;;;;;5.43;1.88;;;;;;;;;;5048140;28;20025;-67
2022/07/19 05:32:28;;;;;;;10.85;2.13;;;;;;;;;;5002731;28;1063528;-67
2022/07/19 05:34:54;;;;;;;8.32;1.80;;;;;;;;;;5042151;28;20418;-66
2022/07/19 05:37:20;;;;;;;6.40;2.00;;;;;;;;;;5040899;28;20024;-66
2022/07/19 05:39:46;;;;;;;4.65;1.42;;;;;;;;;;5049517;28;20163;-66
2022/07/19 05:42:11;;;;;;;5.05;1.88;;;34.00;25.30;;;;;;5037900;28;20482;-65
2022/07/19 05:44:37;;;;;;;4.43;1.90;;;33.70;25.80;;;;;;5043601;28;20032;-65
2022/07/19 05:47:03;;;;;;;3.70;1.60;;;33.20;25.80;;;;;;5044462;28;20028;-64
2022/07/19 05:49:28;;;;;;;4.00;1.80;;;32.60;26.70;;;;;;5036871;28;20017;-65
2022/07/19 05:51:54;;;;;;;6.40;2.08;;;32.30;27.50;;;;;;5049369;28;20044;-66
2022/07/19 05:54:19;;;;;;;7.78;1.52;;;32.30;27.80;;;;;;5039078;28;20047;-67
2022/07/19 05:56:45;;;;;;;6.20;2.20;;;32.70;27.30;;;;;;5042349;28;20026;-66
2022/07/19 05:59:11;;;;;;;4.32;2.10;;;33.30;26.80;;;;;;5044997;28;20029;-66
2022/07/19 06:01:36;;;;;;;4.10;2.22;;;33.00;26.50;;;;;;5035887;28;20037;-66
2022/07/19 06:04:02;;;;;;;6.65;1.80;;;32.60;27.10;;;;;;5048634;28;20022;-65
2022/07/19 06:06:32;;;;;;;5.35;1.65;;;33.40;26.40;;;;;;5039987;28;20027;-63
2022/07/19 06:09:00;;;;;;;7.53;2.35;;;33.00;26.50;;;;;;5039840;28;20036;-66
2022/07/19 06:11:26;;;;;;;7.40;2.47;;;33.40;26.10;;;;;;5047593;28;20067;-67
2022/07/19 06:13:53;;;;;;;7.53;2.05;;;32.90;26.70;;;;;;5032560;28;20090;-66
2022/07/19 06:16:18;;;;;;;5.28;2.67;;;32.80;26.70;;;;;;5038273;28;20017;-68
2022/07/19 06:18:44;;;;;;;5.03;2.10;;;32.80;27.00;;;;;;5039949;28;20025;-68
2022/07/19 06:21:12;;;;;;;8.73;2.28;;;32.30;27.30;;;;;;5042700;28;20053;-68
2022/07/19 06:23:38;;;;;;;4.40;1.92;;;32.90;27.00;;;;;;5033891;28;20033;-69
2022/07/19 06:26:06;;;;;;;3.63;1.98;;;33.30;26.50;;;;;;5047021;28;20404;-66
2022/07/19 06:28:32;;;;;;;4.78;2.20;;;33.20;26.60;;;;;;5029677;28;20036;-69
2022/07/19 06:30:58;;;;;;;4.30;2.15;;;33.70;26.30;;;;;;5030889;28;20022;-70
2022/07/19 06:33:24;;;;;;;4.57;1.88;;;33.90;26.00;;;;;;5030740;28;20475;-70
2022/07/19 06:35:50;;;;;;;7.43;2.40;;;;;;;;;;5048078;28;20152;-69
2022/07/19 06:38:16;;;;;;;6.05;2.15;;;;;;;;;;5033557;28;20475;-70
2022/07/19 06:40:42;;;;;;;6.18;2.38;;;;;;;;;;5042882;28;20105;-69
2022/07/19 06:43:08;;;;;;;5.40;2.25;;;;;;;;;;5042130;28;20029;-70
2022/07/19 06:45:34;;;;;;;2.88;1.75;;;;;;;;;;5035809;28;20121;-70
2022/07/19 06:48:00;;;;;;;5.93;1.65;;;37.50;22.40;;;;;;5047204;28;20032;-67
2022/07/19 06:50:26;;;;;;;6.65;2.10;;;37.90;22.20;;;;;;5017800;28;20041;-67
2022/07/19 06:52:51;;;;;;;4.30;1.75;;;37.20;22.80;;;;;;5024966;28;20478;-66
2022/07/19 06:55:17;;;;;;;7.05;2.22;;;37.90;22.10;;;;;;5013340;28;20032;-68
2022/07/19 06:57:43;;;;;;;6.32;1.70;;;38.30;21.60;;;;;;5046613;28;20021;-65
2022/07/19 07:00:13;;;;;;;8.77;2.13;;;37.80;22.10;;;;;;5031423;28;20068;-70
2022/07/19 07:02:41;;;;;;;5.50;2.05;;;37.40;22.30;;;;;;5030988;28;20044;-71
2022/07/19 07:05:08;;;;;;;4.30;1.80;;;;;;;;;;5042287;28;20025;-71
2022/07/19 07:07:35;;;;;;;11.32;1.92;;;;;;;;;;5035603;28;20026;-70
2022/07/19 07:10:03;;;;;;;9.73;2.35;;;;;;;;;;5030691;28;20399;-75
2022/07/19 07:12:30;;;;;;;6.18;1.92;;;;;;;;;;5036781;28;20513;-75
2022/07/19 07:14:56;;;;;;;10.05;4.25;;;;;;;;;;5041548;28;20037;-71
2022/07/19 07:17:22;;;;;;;20.70;17.67;;;;;;;;;;5043126;28;20029;-74
2022/07/19 07:19:48;;;;;;;9.70;6.47;;;;;;;;;;5034133;28;20074;-70
2022/07/19 07:22:14;;;;;;;10.20;5.43;;;;;;;;;;5046900;28;20155;-69
2022/07/19 07:24:40;;;;;;;21.50;15.77;;;;;;;;;;5032571;28;20096;-70
2022/07/19 07:27:06;;;;;;;23.60;18.58;;;;;;;;;;5030007;28;20036;-66
2022/07/19 07:29:32;;;;;;;6.00;2.60;;;;;;;;;;5045230;28;20029;-69
2022/07/19 07:31:58;;;;;;;11.23;6.38;;;;;;;;;;5032857;28;20447;-67
2022/07/19 07:34:24;;;;;;;12.32;5.05;;;;;;;;;;5045722;28;20020;-69
2022/07/19 07:36:50;;;;;;;14.82;2.42;;;;;;;;;;5032462;28;20033;-71
2022/07/19 07:39:17;;;;;;;10.80;3.33;;;;;;;;;;5041991;28;20029;-69
2022/07/19 07:41:43;;;;;;;9.52;4.32;;;;;;;;;;5016586;28;20136;-70
2022/07/19 07:44:09;;;;;;;4.72;3.63;;;;;;;;;;5046755;28;20029;-68
2022/07/19 07:46:35;;;;;;;8.55;2.15;;;;;;;;;;5036884;28;20121;-68
2022/07/19 07:49:01;;;;;;;8.50;2.40;;;;;;;;;;5039571;28;20061;-70
2022/07/19 07:51:27;;;;;;;6.15;2.35;;;;;;;;;;5044020;28;20361;-70
2022/07/19 07:53:53;;;;;;;14.23;2.20;;;;;;;;;;5033651;28;20067;-67
2022/07/19 07:56:19;;;;;;;6.05;2.05;;;38.60;21.00;;;;;;5045997;28;20459;-67
2022/07/19 07:58:44;;;;;;;6.40;1.90;;;38.30;21.40;;;;;;5032509;28;20029;-65
2022/07/19 08:01:10;;;;;;;4.70;2.20;;;38.50;21.40;;;;;;5024020;28;20091;-68
2022/07/19 08:03:36;;;;;;;6.95;1.85;;;38.80;20.60;;;;;;5035090;28;20025;-69
2022/07/19 08:06:02;;;;;;;4.40;2.00;;;39.00;20.20;;;;;;5047140;28;20029;-66
2022/07/19 08:08:27;;;;;;;11.45;1.85;;;38.50;20.70;;;;;;5033736;28;20113;-66
2022/07/19 08:10:54;;;;;;;5.53;2.35;;;39.00;20.40;;;;;;5040949;28;20029;-69
2022/07/19 08:13:20;;;;;;;5.85;1.60;;;39.50;20.10;;;;;;5043021;28;20052;-65
2022/07/19 08:15:46;;;;;;;83.30;75.05;;;39.80;19.40;;;;;;5033760;28;20563;-69
2022/07/19 08:18:12;;;;;;;5.55;1.85;;;40.10;19.40;;;;;;5045840;28;20105;-67
2022/07/19 08:20:37;;;;;;;113.07;97.78;;;40.60;18.50;;;;;;5037290;28;20364;-68
2022/07/19 08:23:03;;;;;;;18.23;10.30;;;40.80;19.50;;;;;;5039844;28;20041;-68
2022/07/19 08:25:29;;;;;;;9.50;2.90;;;40.00;19.20;;;;;;5043826;28;20425;-67
2022/07/19 08:27:55;;;;;;;5.53;1.92;;;39.70;19.40;;;;;;5048014;28;20052;-70
2022/07/19 08:30:21;;;;;;;5.63;1.98;;;38.80;20.20;;;;;;5048073;28;20494;-71
2022/07/19 08:32:46;;;;;;;6.47;2.08;;;38.40;20.30;;;;;;5048559;28;20119;-68
2022/07/19 08:35:12;;;;;;;8.07;2.40;;;38.90;19.90;;;;;;5049226;28;20017;-72
2022/07/19 08:37:38;;;;;;;5.18;1.70;;;38.80;20.00;;;;;;5031448;28;20055;-67
2022/07/19 08:40:05;;;;;;;5.03;1.75;;;37.80;20.50;;;;;;5032448;28;20064;-67
2022/07/19 08:42:31;;;;;;;4.32;2.10;;;36.70;21.10;;;;;;5044390;28;20399;-67
2022/07/19 08:45:01;;;;;;;4.95;1.75;;;37.20;20.90;;;;;;5042036;28;20063;-66
2022/07/19 08:47:27;;;;;;;6.18;2.17;;;37.80;20.30;;;;;;5031400;28;20037;-65
2022/07/19 08:49:53;;;;;;;4.43;1.67;;;38.70;19.20;;;;;;5025516;28;20025;-67
2022/07/19 08:52:19;;;;;;;9.98;2.03;;;40.10;18.40;;;;;;5032616;28;20053;-68
2022/07/19 08:54:45;;;;;;;7.18;2.22;;;39.70;18.10;;;;;;5032315;28;20127;-67
2022/07/19 08:59:55;;;;;;;4.03;2.13;;;39.60;18.30;;;;;;5033775;28;20032;-68
2022/07/19 09:02:21;;;;;;;7.47;1.73;;;38.70;18.30;;;;;;5034092;28;20041;-67
2022/07/19 09:05:00;;;;;;;6.15;1.70;;;37.90;19.10;;;;;;5034205;28;20441;-68
2022/07/19 09:07:26;;;;;;;6.55;1.92;;;38.40;18.60;;;;;;5033226;28;20450;-67
2022/07/19 09:09:52;;;;;;;6.88;1.98;;;38.10;19.20;;;;;;5034052;28;20059;-67
2022/07/19 09:12:17;;;;;;;6.13;2.10;;;37.80;19.20;;;;;;5033763;28;20017;-68
2022/07/19 09:14:53;;;;;;;11.95;2.50;;;37.90;19.30;;;;;;5033777;28;20033;-68
2022/07/19 09:17:20;;;;;;;5.97;2.53;;;39.10;18.60;;;;;;5032948;28;20391;-67
2022/07/19 09:19:47;;;;;;;7.20;2.40;;;40.40;16.80;;;;;;5016168;28;20029;-67
2022/07/19 09:22:15;;;;;;;6.45;1.98;;;41.20;16.60;;;;;;5033599;28;20100;-68
2022/07/19 09:24:42;;;;;;;8.25;2.25;;;41.50;15.90;;;;;;5033679;28;20040;-68
2022/07/19 09:27:10;;;;;;;6.63;2.03;;;39.40;17.30;;;;;;5032917;28;20021;-68
2022/07/19 09:29:42;;;;;;;6.30;1.65;;;38.00;18.80;;;;;;5033653;28;20033;-68
2022/07/19 09:32:16;;;;;;;7.50;2.40;;;37.70;19.00;;;;;;5015366;28;20483;-68
2022/07/19 09:35:03;;;;;;;7.50;2.10;;;37.40;19.30;;;;;;5033375;28;20029;-69
2022/07/19 09:37:34;;;;;;;7.47;1.95;;;38.20;18.80;;;;;;5032837;28;20032;-68
2022/07/19 09:40:05;;;;;;;7.43;2.15;;;37.30;18.90;;;;;;5033445;28;20036;-68
2022/07/19 09:42:37;;;;;;;5.82;2.08;;;37.70;18.70;;;;;;5033421;28;20029;-68
2022/07/19 09:45:06;;;;;;;5.22;1.90;;;37.60;18.70;;;;;;5033173;28;20045;-68
2022/07/19 09:47:34;;;;;;;3.42;2.03;;;36.90;19.50;;;;;;5032545;28;20033;-67
2022/07/19 09:50:04;;;;;;;4.95;1.95;;;37.40;19.20;;;;;;5033166;28;20057;-68
2022/07/19 09:52:30;;;;;;;5.70;2.47;;;37.60;19.20;;;;;;5033509;28;20030;-68
2022/07/19 09:54:59;;;;;;;4.70;1.83;;;38.30;19.20;;;;;;5032777;28;20599;-68
2022/07/19 09:57:27;;;;;;;5.43;1.75;;;38.90;18.50;;;;;;5032397;28;20022;-68
2022/07/19 09:59:54;;;;;;;4.57;2.05;;;39.80;17.80;;;;;;5032626;28;20025;-66
2022/07/19 10:02:22;;;;;;;6.07;1.90;;;39.80;17.80;;;;;;5033597;28;20029;-67
2022/07/19 10:04:49;;;;;;;4.68;2.25;;;39.20;17.90;;;;;;5033032;28;20029;-68
2022/07/19 10:07:16;;;;;;;7.43;2.35;;;38.70;17.90;;;;;;5032046;28;20495;-68
2022/07/19 10:09:43;;;;;;;3.72;2.30;;;37.00;18.90;;;;;;5033284;28;20052;-68
2022/07/19 10:12:09;;;;;;;3.42;2.03;;;35.80;20.20;;;;;;5032703;28;20026;-68
2022/07/19 10:14:36;;;;;;;4.95;1.90;;;35.30;20.60;;;;;;5033203;28;20033;-65
2022/07/19 10:17:26;;;;;;;4.18;2.28;;;34.90;20.90;;;;;;5032421;28;20072;-68
2022/07/19 10:19:52;;;;;;;7.05;2.55;;;35.10;20.90;;;;;;5032696;28;20025;-68
2022/07/19 10:22:21;;;;;;;6.43;2.67;;;35.90;21.10;;;;;;5032671;28;20591;-68
2022/07/19 10:24:51;;;;;;;6.30;2.17;;;35.90;20.70;;;;;;5032302;28;20041;-67
2022/07/19 10:27:24;;;;;;;7.97;2.63;;;36.20;20.10;;;;;;5031460;28;20041;-68
2022/07/19 10:29:57;;;;;;;3.75;2.85;;;36.60;19.90;;;;;;5032149;28;20611;-66
2022/07/19 10:32:29;;;;;;;6.15;2.42;;;36.80;20.70;;;;;;5032904;28;20039;-70
2022/07/19 10:35:26;;;;;;;6.95;2.50;;;36.90;20.00;;;;;;5032179;28;20083;-68
2022/07/19 10:37:54;;;;;;;7.03;2.45;;;37.00;20.00;;;;;;5031301;28;20491;-65
2022/07/19 10:40:35;;;;;;;8.32;2.17;;;36.90;20.50;;;;;;5031731;28;20030;-66
2022/07/19 10:43:07;;;;;;;;;;;36.60;20.50;;;;;;5014532;28;20021;-67
2022/07/19 10:45:33;;;;;;;6.82;2.22;;;35.90;20.10;;;;;;5012264;28;19905;-68
2022/07/19 10:48:01;;;;;;;7.03;2.60;;;35.80;20.60;;;;;;5011542;28;20040;-68
2022/07/19 10:50:45;;;;;;;7.28;2.17;;;34.90;21.20;;;;;;5023497;28;20044;-66
2022/07/19 10:53:10;;;;;;;6.10;2.53;;;34.40;21.70;;;;;;5031557;28;20492;-66
2022/07/19 10:55:36;;;;;;;7.75;2.28;;;33.90;21.90;;;;;;5031958;28;20036;-67
2022/07/19 10:58:09;;;;;;;5.82;2.25;;;33.50;22.40;;;;;;5031780;28;20028;-67
2022/07/19 11:00:49;;;;;;;7.05;2.33;;;33.40;22.20;;;;;;5011701;28;20500;-65
2022/07/19 11:03:21;;;;;;;7.95;2.17;;;33.40;22.30;;;;;;5011860;28;20018;-67
2022/07/19 11:05:48;;;;;;;6.00;2.63;;;33.60;22.40;;;;;;5012034;28;20037;-67
2022/07/19 11:08:14;;;;;;;4.63;1.88;;;33.90;23.60;;;;;;5011455;28;20026;-67
2022/07/19 11:10:40;;;;;;;4.97;2.25;;;34.20;23.10;;;;;;5011938;28;20018;-68
2022/07/19 11:13:05;;;;;;;8.73;2.38;;;34.40;22.50;;;;;;5011704;28;20093;-65
2022/07/19 11:15:31;;;;;;;5.10;2.60;;;34.40;21.60;;;;;;5011659;28;20495;-68
2022/07/19 11:18:07;;;;;;;6.43;2.25;;;34.10;22.10;;;;;;5011355;28;20028;-67
2022/07/19 11:20:35;;;;;;;4.00;2.25;;;34.10;21.90;;;;;;5011697;28;20380;-68
2022/07/19 11:23:03;;;;;;;7.53;2.30;;;34.20;22.10;;;;;;5011656;28;20631;-67
2022/07/19 11:25:36;;;;;;;5.55;2.38;;;34.00;22.00;;;;;;5011482;28;20048;-68
2022/07/19 11:28:02;;;;;;;11.00;2.80;;;33.90;22.00;;;;;;5010929;28;20022;-68
2022/07/19 11:30:31;;;;;;;5.95;2.38;;;33.90;22.30;;;;;;5011682;28;20021;-68
2022/07/19 11:33:02;;;;;;;11.07;2.78;;;33.70;22.10;;;;;;5011145;28;20034;-68
2022/07/19 11:35:29;;;;;;;5.43;2.20;;;33.50;23.00;;;;;;5011280;28;20030;-68
2022/07/19 11:37:56;;;;;;;8.52;2.30;;;33.80;22.90;;;;;;5010724;28;20049;-67
2022/07/19 11:40:23;;;;;;;7.05;2.25;;;33.80;22.10;;;;;;5011386;28;20018;-68
2022/07/19 11:42:50;;;;;;;9.90;2.88;;;34.00;22.40;;;;;;5011380;28;20018;-67
2022/07/19 11:45:18;;;;;;;12.60;2.50;;;34.00;22.20;;;;;;5011328;28;20052;-69
2022/07/19 11:47:47;;;;;;;6.88;2.33;;;34.00;21.50;;;;;;5010724;28;20026;-67
2022/07/19 11:50:14;;;;;;;7.95;2.80;;;33.90;22.30;;;;;;5011464;28;20139;-66
2022/07/19 11:52:55;;;;;;;3.72;2.08;;;34.00;22.10;;;;;;5011375;28;20056;-69
2022/07/19 11:55:33;;;;;;;4.40;2.08;;;34.00;21.40;;;;;;5011437;28;20018;-68
2022/07/19 11:57:59;;;;;;;3.58;2.05;;;34.00;21.50;;;;;;5010699;28;20030;-66
2022/07/19 12:00:25;;;;;;;4.03;2.50;;;33.90;21.00;;;;;;5029889;28;20075;-67
2022/07/19 12:02:51;;;;;;;6.22;2.85;;;33.50;21.50;;;;;;5031315;28;20053;-68
2022/07/19 12:05:17;;;;;;;7.45;2.85;;;33.50;21.70;;;;;;5030801;28;20041;-68
2022/07/19 12:07:50;;;;;;;4.40;2.40;;;33.60;21.90;;;;;;5030057;28;20064;-67
2022/07/19 12:10:48;;;;;;;5.60;2.10;;;33.80;21.40;;;;;;5031021;28;20415;-64
2022/07/19 12:13:28;;;;;;;8.90;2.50;;;33.90;21.20;;;;;;5002075;28;20042;-66
2022/07/19 12:15:56;;;;;;;7.18;2.70;;;33.80;21.40;;;;;;5013231;28;20022;-66
2022/07/19 12:18:41;;;;;;;7.40;2.60;;;33.80;21.10;;;;;;5031831;28;20159;-66
2022/07/19 12:21:27;;;;;;;4.13;2.13;;;33.70;21.20;;;;;;5034999;28;20330;-66
2022/07/19 12:24:18;;;;;;;4.22;2.47;;;33.60;21.40;;;;;;5034309;28;20104;-67
2022/07/19 12:27:02;;;;;;;5.25;2.63;;;33.70;21.30;;;;;;5037194;28;20087;-66
2022/07/19 12:29:36;;;;;;;9.55;2.65;;;33.90;21.20;;;;;;5031895;28;20040;-67
2022/07/19 12:32:06;;;;;;;8.80;2.42;;;33.90;21.20;;;;;;5034502;28;20452;-67
2022/07/19 12:34:49;;;;;;;15.40;2.90;;;33.90;20.90;;;;;;5034632;28;20025;-69
2022/07/19 12:37:30;;;;;;;5.57;2.58;;;34.00;21.40;;;;;;5033978;28;20026;-67
2022/07/19 12:40:05;;;;;;;5.68;2.47;;;34.00;20.80;;;;;;5034781;28;20046;-67
2022/07/19 12:43:03;;;;;;;4.22;2.00;;;33.70;21.10;;;;;;5034432;28;20018;-67
2022/07/19 12:45:34;;;;;;;3.33;2.70;;;33.90;21.20;;;;;;5022357;28;20383;-67
2022/07/19 12:48:00;;;;;;;;;;;34.00;20.80;;;;;;5034000;28;20052;-65
2022/07/19 12:50:32;;;;;;;4.15;2.30;;;34.00;20.50;;;;;;5016617;28;19909;-67
2022/07/19 12:52:59;;;;;;;6.65;2.58;;;34.10;20.90;;;;;;5034426;28;20026;-67
2022/07/19 12:55:27;;;;;;;4.28;2.40;;;33.90;20.30;;;;;;5033875;28;20087;-68
2022/07/19 12:57:54;;;;;;;5.45;2.80;;;33.80;20.50;;;;;;5033486;28;20031;-68
2022/07/19 13:00:21;;;;;;;13.77;3.00;;;33.80;20.60;;;;;;5034100;28;20033;-67
2022/07/19 13:02:48;;;;;;;8.98;2.42;;;33.90;20.30;;;;;;5034259;28;20025;-67